Time;durP1;ratioP1;P1;durP2;ratioP2;P2;SDS_P1;SDS_P2;PMS_P1;PMS_P2;Temp;Humidity;BMP_temperature;BMP_pressure;BME280_temperature;BME280_humidity;BME280_pressure;Samples;Min_cycle;Max_cycle;Signal;HPM_P1;HPM_P2
2023/10/31 00:00:36;;;;;;;0.10;0.10;;;;;;;12.83;100.00;97517.13;5132191;28;20231;-58
2023/10/31 00:03:22;;;;;;;0.10;0.10;;;;;;;12.83;100.00;97513.63;5133188;28;20232;-58
2023/10/31 00:06:09;;;;;;;0.00;0.00;;;;;;;12.85;100.00;97515.19;5133286;27;20734;-58
2023/10/31 00:08:57;;;;;;;0.00;0.00;;;;;;;12.85;100.00;97514.34;5135037;27;20192;-58
2023/10/31 00:11:44;;;;;;;0.10;0.10;;;;;;;12.93;100.00;97500.25;5136527;27;20265;-58
2023/10/31 00:14:31;;;;;;;0.00;0.00;;;;;;;12.95;100.00;97482.38;5120124;27;20214;-58
2023/10/31 00:17:19;;;;;;;0.00;0.00;;;;;;;12.99;100.00;97486.38;5136822;27;20217;-58
2023/10/31 00:20:07;;;;;;;0.00;0.00;;;;;;;13.04;100.00;97486.75;5136756;27;20687;-58
2023/10/31 00:22:54;;;;;;;0.10;0.10;;;;;;;12.98;100.00;97477.56;5136660;27;20233;-58
2023/10/31 00:25:41;;;;;;;0.00;0.00;;;;;;;12.88;100.00;97476.81;5136876;27;20278;-58
2023/10/31 00:28:28;;;;;;;0.10;0.10;;;;;;;12.89;100.00;97481.97;5135258;27;20193;-59
2023/10/31 00:31:15;;;;;;;0.00;0.00;;;;;;;12.89;100.00;97463.38;5136744;27;20202;-58
2023/10/31 00:34:04;;;;;;;0.10;0.10;;;;;;;12.87;100.00;97457.41;5120910;27;20675;-58
2023/10/31 00:36:50;;;;;;;0.10;0.10;;;;;;;12.85;100.00;97455.88;5136149;27;20217;-58
2023/10/31 00:39:37;;;;;;;0.10;0.10;;;;;;;12.86;100.00;97465.53;5136471;27;20198;-58
2023/10/31 00:42:25;;;;;;;0.00;0.00;;;;;;;12.83;100.00;97456.00;5136463;27;20193;-58
2023/10/31 00:45:12;;;;;;;0.10;0.10;;;;;;;12.84;100.00;97448.91;5134875;27;20243;-58
2023/10/31 00:47:58;;;;;;;0.00;0.00;;;;;;;12.76;100.00;97444.38;5136309;27;20201;-58
2023/10/31 00:50:47;;;;;;;0.00;0.00;;;;;;;12.79;100.00;97444.03;5136150;27;20310;-58
2023/10/31 00:53:34;;;;;;;0.10;0.10;;;;;;;12.74;100.00;97435.72;5120472;27;20314;-58
2023/10/31 00:56:21;;;;;;;0.00;0.00;;;;;;;12.84;100.00;97452.41;5136053;27;20193;-58
2023/10/31 00:59:08;;;;;;;0.00;0.00;;;;;;;12.82;100.00;97438.41;5134751;27;20333;-58
2023/10/31 01:01:55;;;;;;;0.00;0.00;;;;;;;12.79;100.00;97436.06;5120155;27;20213;-58
2023/10/31 01:04:42;;;;;;;0.00;0.00;;;;;;;12.78;100.00;97430.91;5136041;27;20189;-58
2023/10/31 01:07:30;;;;;;;0.07;0.07;;;;;;;12.77;100.00;97427.44;5135955;27;20192;-58
2023/10/31 01:10:17;;;;;;;0.00;0.00;;;;;;;12.70;100.00;97430.84;5135717;27;20186;-58
2023/10/31 01:13:04;;;;;;;0.00;0.00;;;;;;;12.66;100.00;97424.19;5135806;27;20263;-58
2023/10/31 01:15:51;;;;;;;0.00;0.00;;;;;;;12.56;100.00;97417.16;5120225;27;20196;-58
2023/10/31 01:18:38;;;;;;;0.10;0.10;;;;;;;12.56;100.00;97416.31;5135226;27;20254;-58
2023/10/31 01:21:25;;;;;;;0.00;0.00;;;;;;;12.44;100.00;97412.19;5134662;27;20194;-58
2023/10/31 01:24:13;;;;;;;0.00;0.00;;;;;;;12.39;100.00;97415.34;5135132;27;20248;-58
2023/10/31 01:27:00;;;;;;;0.00;0.00;;;;;;;12.29;100.00;97409.25;5135223;27;20240;-58
2023/10/31 01:29:47;;;;;;;0.00;0.00;;;;;;;12.25;100.00;97416.69;5134203;27;20212;-58
2023/10/31 01:32:34;;;;;;;0.00;0.00;;;;;;;12.21;100.00;97417.97;5120017;27;20193;-58
2023/10/31 01:35:20;;;;;;;0.10;0.10;;;;;;;12.19;100.00;97417.31;5119595;27;20263;-58
2023/10/31 01:38:07;;;;;;;0.03;0.03;;;;;;;12.23;100.00;97429.28;5135184;27;20217;-58
2023/10/31 01:40:56;;;;;;;0.00;0.00;;;;;;;12.26;100.00;97430.81;5135337;27;20287;-58
2023/10/31 01:43:42;;;;;;;0.07;0.07;;;;;;;12.25;100.00;97422.00;5118195;27;20189;-58
2023/10/31 01:46:29;;;;;;;0.10;0.10;;;;;;;12.30;100.00;97424.19;5134969;27;20197;-58
2023/10/31 01:49:17;;;;;;;0.00;0.00;;;;;;;12.31;100.00;97416.09;5135022;27;20316;-58
2023/10/31 01:52:05;;;;;;;0.03;0.03;;;;;;;12.33;100.00;97410.63;5134838;27;20197;-58
2023/10/31 01:54:52;;;;;;;0.00;0.00;;;;;;;12.41;100.00;97416.00;5135007;27;20221;-58
2023/10/31 01:57:41;;;;;;;0.00;0.00;;;;;;;12.26;100.00;97412.22;5134807;27;20242;-58
2023/10/31 02:00:28;;;;;;;0.10;0.10;;;;;;;12.34;100.00;97417.59;5117883;27;20206;-58
2023/10/31 02:03:15;;;;;;;0.00;0.00;;;;;;;12.28;100.00;97404.94;5134836;27;20308;-58
2023/10/31 02:06:02;;;;;;;0.00;0.00;;;;;;;12.27;100.00;97401.47;5134730;27;20193;-58
2023/10/31 02:08:49;;;;;;;0.10;0.10;;;;;;;12.31;100.00;97413.44;5118982;27;20185;-58
2023/10/31 02:11:36;;;;;;;0.00;0.00;;;;;;;12.28;100.00;97411.09;5134611;27;20212;-58
2023/10/31 02:14:24;;;;;;;0.10;0.10;;;;;;;12.31;100.00;97405.47;5117699;27;20194;-58
2023/10/31 02:17:11;;;;;;;0.07;0.07;;;;;;;12.28;100.00;97410.25;5118595;27;20197;-58
2023/10/31 02:19:58;;;;;;;0.10;0.10;;;;;;;12.23;100.00;97413.34;5118814;27;20242;-58
2023/10/31 02:22:47;;;;;;;0.00;0.00;;;;;;;12.28;100.00;97416.41;5134172;27;20225;-58
2023/10/31 02:25:34;;;;;;;0.10;0.10;;;;;;;12.33;100.00;97413.28;5134314;27;20327;-58
2023/10/31 02:28:21;;;;;;;0.03;0.03;;;;;;;12.32;100.00;97420.41;5132906;27;20266;-58
2023/10/31 02:31:08;;;;;;;0.00;0.00;;;;;;;12.30;100.00;97413.59;5118439;27;20668;-58
2023/10/31 02:33:55;;;;;;;0.10;0.10;;;;;;;12.23;100.00;97412.50;5118808;27;20193;-58
2023/10/31 02:36:42;;;;;;;0.10;0.10;;;;;;;12.13;100.00;97425.03;5134309;27;20193;-58
2023/10/31 02:39:30;;;;;;;0.10;0.10;;;;;;;12.18;100.00;97420.94;5133830;27;20213;-58
2023/10/31 02:42:17;;;;;;;0.00;0.00;;;;;;;12.05;100.00;97415.16;5134196;27;20211;-58
2023/10/31 02:45:04;;;;;;;0.00;0.00;;;;;;;12.07;100.00;97413.22;5132928;27;20201;-58
2023/10/31 02:47:51;;;;;;;0.00;0.00;;;;;;;12.18;100.00;97409.50;5133975;27;20235;-58
2023/10/31 02:50:39;;;;;;;0.00;0.00;;;;;;;12.14;100.00;97413.41;5133924;27;20308;-58
2023/10/31 02:53:27;;;;;;;0.00;0.00;;;;;;;12.18;100.00;97412.16;5133899;27;20209;-58
2023/10/31 02:56:15;;;;;;;0.00;0.00;;;;;;;12.18;100.00;97406.84;5133963;27;20353;-58
2023/10/31 02:59:02;;;;;;;0.00;0.00;;;;;;;12.10;100.00;97418.22;5132480;27;20254;-58
2023/10/31 03:01:48;;;;;;;0.10;0.10;;;;;;;12.04;100.00;97427.59;5134130;27;20227;-58
2023/10/31 03:04:35;;;;;;;0.00;0.00;;;;;;;12.07;100.00;97430.94;5133855;27;20283;-57
2023/10/31 03:07:23;;;;;;;0.00;0.00;;;;;;;12.06;100.00;97439.88;5133959;27;20197;-58
2023/10/31 03:10:10;;;;;;;0.10;0.10;;;;;;;11.98;100.00;97440.63;5133728;27;20232;-58
2023/10/31 03:12:59;;;;;;;0.10;0.10;;;;;;;11.99;100.00;97452.91;5133794;28;20197;-58
2023/10/31 03:15:46;;;;;;;0.00;0.00;;;;;;;11.94;100.00;97463.13;5117996;27;20278;-58
2023/10/31 03:18:33;;;;;;;0.00;0.00;;;;;;;11.89;100.00;97463.59;5133366;28;20760;-58
2023/10/31 03:21:20;;;;;;;0.00;0.00;;;;;;;11.89;100.00;97465.41;5133754;27;20184;-58
2023/10/31 03:24:07;;;;;;;0.00;0.00;;;;;;;11.83;100.00;97461.50;5133343;28;20236;-58
2023/10/31 03:26:55;;;;;;;0.10;0.10;;;;;;;11.83;100.00;97460.69;5133599;27;20201;-58
2023/10/31 03:29:43;;;;;;;0.00;0.00;;;;;;;11.79;100.00;97467.25;5132234;28;20185;-58
2023/10/31 03:32:30;;;;;;;0.00;0.00;;;;;;;11.79;100.00;97468.06;5133617;28;20205;-58
2023/10/31 03:35:17;;;;;;;0.10;0.10;;;;;;;11.65;100.00;97482.66;5133451;28;20213;-58
2023/10/31 03:38:04;;;;;;;0.10;0.10;;;;;;;11.66;100.00;97484.31;5117729;28;20311;-58
2023/10/31 03:40:51;;;;;;;0.00;0.00;;;;;;;11.65;100.00;97485.28;5133528;27;20200;-57
2023/10/31 03:43:38;;;;;;;0.10;0.10;;;;;;;11.59;100.00;97504.47;5133540;27;20280;-58
2023/10/31 03:46:26;;;;;;;0.00;0.00;;;;;;;11.54;100.00;97512.00;5137517;27;20204;-58
2023/10/31 03:49:13;;;;;;;0.00;0.00;;;;;;;11.49;100.00;97506.31;5137481;27;20189;-58
2023/10/31 03:52:00;;;;;;;0.00;0.00;;;;;;;11.48;100.00;97504.59;5121788;27;20365;-58
2023/10/31 03:54:47;;;;;;;0.00;0.00;;;;;;;11.38;100.00;97507.28;5121900;27;20193;-58
2023/10/31 03:57:34;;;;;;;0.00;0.00;;;;;;;11.34;100.00;97515.69;5137197;27;20197;-58
2023/10/31 04:00:21;;;;;;;0.00;0.00;;;;;;;11.30;100.00;97516.97;5120481;27;20189;-58
2023/10/31 04:03:09;;;;;;;0.00;0.00;;;;;;;11.30;100.00;97532.88;5121593;27;20193;-58
2023/10/31 04:05:56;;;;;;;0.00;0.00;;;;;;;11.22;100.00;97549.47;5121553;27;20212;-58
2023/10/31 04:08:43;;;;;;;0.00;0.00;;;;;;;11.20;100.00;97551.44;5121576;27;20182;-57
2023/10/31 04:11:30;;;;;;;0.00;0.00;;;;;;;11.19;100.00;97552.38;5136994;27;20193;-58
2023/10/31 04:14:16;;;;;;;0.00;0.00;;;;;;;11.28;100.00;97558.66;5135805;27;20190;-58
2023/10/31 04:17:04;;;;;;;0.00;0.00;;;;;;;11.29;100.00;97560.31;5137073;27;20194;-58
2023/10/31 04:19:53;;;;;;;0.00;0.00;;;;;;;11.37;100.00;97557.81;5136410;27;20205;-58
2023/10/31 04:22:39;;;;;;;0.00;0.00;;;;;;;11.15;100.00;97556.31;5136936;27;20217;-58
2023/10/31 04:25:28;;;;;;;0.00;0.00;;;;;;;11.23;100.00;97563.56;5136789;27;20189;-58
2023/10/31 04:28:15;;;;;;;0.00;0.00;;;;;;;11.28;100.00;97566.59;5135438;27;20644;-57
2023/10/31 04:31:03;;;;;;;0.00;0.00;;;;;;;11.22;100.00;97559.25;5136586;27;20189;-57
2023/10/31 04:33:50;;;;;;;0.07;0.07;;;;;;;11.15;100.00;97562.44;5136646;27;20185;-58
2023/10/31 04:36:38;;;;;;;0.00;0.00;;;;;;;11.26;100.00;97560.63;5136651;27;20190;-57
2023/10/31 04:39:25;;;;;;;0.00;0.00;;;;;;;11.23;100.00;97564.41;5136431;27;20221;-58
2023/10/31 04:42:12;;;;;;;0.00;0.00;;;;;;;11.19;100.00;97573.59;5136422;27;20219;-57
2023/10/31 04:44:59;;;;;;;0.00;0.00;;;;;;;11.21;100.00;97562.88;5134781;27;20196;-58
2023/10/31 04:47:46;;;;;;;0.00;0.00;;;;;;;11.10;100.00;97562.03;5136209;27;20186;-58
2023/10/31 04:50:33;;;;;;;0.00;0.00;;;;;;;11.02;100.00;97561.06;5136325;27;20190;-57
2023/10/31 04:53:21;;;;;;;0.00;0.00;;;;;;;11.16;100.00;97573.88;5136252;27;20214;-57
2023/10/31 04:56:14;;;;;;;0.00;0.00;;;;;;;11.08;100.00;97571.09;5136199;27;20189;-57
2023/10/31 04:59:01;;;;;;;0.10;0.10;;;;;;;11.09;100.00;97572.75;5134653;27;20213;-58
2023/10/31 05:01:51;;;;;;;0.07;0.07;;;;;;;11.04;100.00;97570.53;5135800;27;20205;-57
2023/10/31 05:04:39;;;;;;;0.10;0.10;;;;;;;11.11;100.00;97581.44;5120538;27;20197;-57
2023/10/31 05:07:26;;;;;;;0.07;0.07;;;;;;;11.05;100.00;97579.31;5120186;27;20202;-58
2023/10/31 05:10:14;;;;;;;0.00;0.00;;;;;;;11.10;100.00;97582.41;5135855;27;20258;-58
2023/10/31 05:13:02;;;;;;;0.10;0.10;;;;;;;11.13;100.00;97580.31;5135439;27;20311;-58
2023/10/31 05:15:49;;;;;;;0.00;0.00;;;;;;;11.08;100.00;97571.91;5135808;27;20193;-58
2023/10/31 05:18:37;;;;;;;0.10;0.10;;;;;;;11.13;100.00;97563.56;5135408;27;20193;-58
2023/10/31 05:21:25;;;;;;;0.00;0.00;;;;;;;11.25;100.00;97569.56;5135700;27;20282;-58
2023/10/31 05:24:12;;;;;;;0.00;0.00;;;;;;;11.14;100.00;97560.78;5135410;27;20259;-58
2023/10/31 05:27:00;;;;;;;0.00;0.00;;;;;;;11.18;100.00;97570.09;5135446;27;20260;-58
2023/10/31 05:29:47;;;;;;;0.00;0.00;;;;;;;11.17;100.00;97570.25;5134049;27;20189;-58
2023/10/31 05:32:33;;;;;;;0.00;0.00;;;;;;;11.06;100.00;97563.28;5135490;27;20713;-58
2023/10/31 05:35:22;;;;;;;0.00;0.00;;;;;;;11.13;100.00;97555.63;5135170;27;20331;-58
2023/10/31 05:38:09;;;;;;;0.10;0.10;;;;;;;11.21;100.00;97563.72;5135375;27;20679;-58
2023/10/31 05:40:55;;;;;;;0.00;0.00;;;;;;;11.18;100.00;97561.31;5135146;27;20267;-58
2023/10/31 05:43:44;;;;;;;0.00;0.00;;;;;;;11.22;100.00;97561.88;5133914;27;20208;-58
2023/10/31 05:46:31;;;;;;;0.00;0.00;;;;;;;11.22;100.00;97569.84;5135267;27;20688;-58
2023/10/31 05:49:19;;;;;;;0.10;0.10;;;;;;;11.19;100.00;97573.59;5135202;27;20375;-58
2023/10/31 05:52:06;;;;;;;0.00;0.00;;;;;;;11.25;100.00;97567.72;5135111;27;20208;-58
2023/10/31 05:54:53;;;;;;;0.00;0.00;;;;;;;11.21;100.00;97574.31;5135122;27;20711;-58
2023/10/31 05:57:40;;;;;;;0.10;0.10;;;;;;;11.27;100.00;97580.84;5134952;27;20227;-58
2023/10/31 06:00:28;;;;;;;0.10;0.10;;;;;;;11.20;100.00;97582.41;5134093;27;20287;-58
2023/10/31 06:03:15;;;;;;;0.00;0.00;;;;;;;11.27;100.00;97580.84;5134889;27;20193;-58
2023/10/31 06:06:02;;;;;;;0.10;0.10;;;;;;;11.35;100.00;97579.16;5134563;27;20235;-58
2023/10/31 06:08:49;;;;;;;0.07;0.07;;;;;;;11.27;100.00;97591.44;5134713;27;20193;-58
2023/10/31 06:11:36;;;;;;;0.00;0.00;;;;;;;11.34;100.00;97587.25;5134472;27;20308;-58
2023/10/31 06:14:22;;;;;;;0.10;0.10;;;;;;;11.25;100.00;97586.28;5133134;27;20228;-57
2023/10/31 06:17:10;;;;;;;0.00;0.00;;;;;;;11.17;100.00;97600.22;5134852;27;20308;-57
2023/10/31 06:19:57;;;;;;;0.00;0.00;;;;;;;11.26;100.00;97597.72;5134325;27;20213;-57
2023/10/31 06:22:44;;;;;;;0.00;0.00;;;;;;;11.25;100.00;97602.19;5134317;27;20243;-57
2023/10/31 06:25:31;;;;;;;0.00;0.00;;;;;;;11.28;100.00;97607.19;5134526;27;20198;-57
2023/10/31 06:28:18;;;;;;;0.10;0.10;;;;;;;11.24;100.00;97604.97;5132880;27;20209;-57
2023/10/31 06:31:05;;;;;;;0.00;0.00;;;;;;;11.25;100.00;97614.59;5134205;27;20701;-57
2023/10/31 06:33:53;;;;;;;0.00;0.00;;;;;;;11.18;100.00;97620.44;5134182;27;20231;-57
2023/10/31 06:36:40;;;;;;;0.00;0.00;;;;;;;11.27;100.00;97617.94;5134283;27;20691;-57
2023/10/31 06:39:27;;;;;;;0.00;0.00;;;;;;;11.17;100.00;97621.44;5134203;27;20209;-57
2023/10/31 06:42:14;;;;;;;0.00;0.00;;;;;;;11.09;100.00;97625.75;5134085;27;20190;-57
2023/10/31 06:45:01;;;;;;;0.10;0.10;;;;;;;11.17;100.00;97629.38;5133090;27;20243;-57
2023/10/31 06:47:48;;;;;;;0.00;0.00;;;;;;;11.31;100.00;97638.75;5134301;27;20194;-57
2023/10/31 06:50:36;;;;;;;0.00;0.00;;;;;;;11.30;100.00;97636.22;5134055;27;20201;-57
2023/10/31 06:53:23;;;;;;;0.10;0.10;;;;;;;11.33;100.00;97646.53;5133921;27;20667;-57
2023/10/31 06:56:10;;;;;;;0.03;0.03;;;;;;;11.31;100.00;97644.03;5133819;27;20189;-57
2023/10/31 06:58:57;;;;;;;0.00;0.00;;;;;;;11.36;100.00;97648.91;5132770;27;20275;-58
2023/10/31 07:01:45;;;;;;;0.10;0.10;;;;;;;11.52;100.00;97651.84;5133797;27;20193;-57
2023/10/31 07:04:31;;;;;;;0.10;0.10;;;;;;;11.48;100.00;97645.13;5133689;27;20197;-57
2023/10/31 07:07:20;;;;;;;0.00;0.00;;;;;;;11.42;100.00;97651.84;5133808;27;20197;-57
2023/10/31 07:10:08;;;;;;;0.10;0.10;;;;;;;11.43;100.00;97656.16;5133951;27;20374;-57
2023/10/31 07:12:55;;;;;;;0.10;0.10;;;;;;;11.33;100.00;97673.06;5133800;28;20197;-57
2023/10/31 07:15:42;;;;;;;0.00;0.00;;;;;;;11.22;100.00;97679.31;5133854;28;20265;-57
2023/10/31 07:18:28;;;;;;;0.10;0.10;;;;;;;11.15;100.00;97683.50;5134787;27;20189;-57
2023/10/31 07:21:15;;;;;;;0.00;0.00;;;;;;;11.09;100.00;97692.81;5137956;27;20294;-57
2023/10/31 07:24:04;;;;;;;0.00;0.00;;;;;;;11.00;100.00;97692.81;5137668;27;20320;-57
2023/10/31 07:26:50;;;;;;;0.00;0.00;;;;;;;10.97;100.00;97696.56;5137892;27;20204;-57
2023/10/31 07:29:40;;;;;;;0.10;0.10;;;;;;;10.95;100.00;97703.81;5136431;27;20215;-57
2023/10/31 07:32:27;;;;;;;0.10;0.10;;;;;;;11.06;100.00;97713.47;5137715;27;20292;-57
2023/10/31 07:35:14;;;;;;;0.10;0.10;;;;;;;11.04;100.00;97708.31;5137223;27;20197;-58
2023/10/31 07:38:01;;;;;;;0.10;0.10;;;;;;;11.05;100.00;97720.56;5137392;27;20663;-57
2023/10/31 07:40:49;;;;;;;0.10;0.10;;;;;;;11.09;100.00;97729.91;5136770;27;20312;-57
2023/10/31 07:43:36;;;;;;;0.00;0.00;;;;;;;11.08;100.00;97732.72;5136124;27;20235;-57
2023/10/31 07:46:24;;;;;;;0.00;0.00;;;;;;;11.14;100.00;97733.00;5137509;27;20197;-57
2023/10/31 07:49:11;;;;;;;0.00;0.00;;;;;;;11.21;100.00;97743.91;5137621;27;20189;-57
2023/10/31 07:51:58;;;;;;;0.00;0.00;;;;;;;11.24;100.00;97732.19;5137578;27;20205;-57
2023/10/31 07:54:45;;;;;;;0.00;0.00;;;;;;;11.23;100.00;97741.13;5136952;27;20213;-57
2023/10/31 07:57:34;;;;;;;0.00;0.00;;;;;;;11.24;100.00;97732.19;5136862;27;20189;-57
2023/10/31 08:00:21;;;;;;;0.10;0.10;;;;;;;11.21;100.00;97746.56;5135812;27;20339;-58
2023/10/31 08:03:08;;;;;;;0.10;0.10;;;;;;;11.20;100.00;97736.94;5137223;27;20197;-58
2023/10/31 08:05:55;;;;;;;0.10;0.10;;;;;;;11.25;100.00;97747.94;5137123;27;20193;-57
2023/10/31 08:08:42;;;;;;;0.10;0.10;;;;;;;11.24;100.00;97746.28;5137149;27;20193;-58
2023/10/31 08:11:29;;;;;;;0.10;0.10;;;;;;;11.30;100.00;97750.19;5136839;27;20672;-58
2023/10/31 08:14:17;;;;;;;0.00;0.00;;;;;;;11.29;100.00;97752.00;5135665;27;20308;-58
2023/10/31 08:17:04;;;;;;;0.00;0.00;;;;;;;11.41;100.00;97755.38;5136950;27;20194;-57
2023/10/31 08:19:51;;;;;;;0.00;0.00;;;;;;;11.34;100.00;97754.25;5136669;27;20297;-58
2023/10/31 08:22:38;;;;;;;0.00;0.00;;;;;;;11.40;100.00;97757.19;5136536;27;20224;-58
2023/10/31 08:25:25;;;;;;;0.00;0.00;;;;;;;11.37;100.00;97760.09;5136738;27;20197;-58
2023/10/31 08:28:13;;;;;;;0.10;0.10;;;;;;;11.52;100.00;97765.84;5119539;27;20196;-58
2023/10/31 08:31:01;;;;;;;0.00;0.00;;;;;;;11.34;100.00;97762.19;5136326;27;20403;-58
2023/10/31 08:33:47;;;;;;;0.00;0.00;;;;;;;11.30;100.00;97768.75;5136528;27;20668;-57
2023/10/31 08:36:34;;;;;;;0.10;0.10;;;;;;;11.28;100.00;97776.81;5136510;27;20294;-57
2023/10/31 08:39:21;;;;;;;0.00;0.00;;;;;;;11.28;100.00;97783.94;5136127;27;20188;-58
2023/10/31 08:42:09;;;;;;;0.10;0.10;;;;;;;11.25;100.00;97787.69;5136188;27;20205;-57
2023/10/31 08:44:56;;;;;;;0.10;0.10;;;;;;;11.33;100.00;97785.22;5134760;27;20194;-58
2023/10/31 08:47:44;;;;;;;0.00;0.00;;;;;;;11.34;100.00;97786.06;5136241;27;20193;-58
2023/10/31 08:50:31;;;;;;;0.10;0.10;;;;;;;11.33;100.00;97784.38;5136167;27;20189;-58
2023/10/31 08:53:19;;;;;;;0.00;0.00;;;;;;;11.36;100.00;97795.53;5136007;27;20209;-58
2023/10/31 08:56:06;;;;;;;0.10;0.10;;;;;;;11.42;100.00;97797.66;5136071;27;20197;-58
2023/10/31 08:58:53;;;;;;;0.10;0.10;;;;;;;11.37;100.00;97801.66;5134802;27;20194;-57
2023/10/31 09:01:40;;;;;;;0.00;0.00;;;;;;;11.51;100.00;97800.47;5135813;27;20216;-57
2023/10/31 09:04:28;;;;;;;0.10;0.10;;;;;;;11.54;100.00;97803.66;5136096;27;20560;-58
2023/10/31 09:07:15;;;;;;;0.07;0.07;;;;;;;11.58;100.00;97809.50;5135827;27;20296;-58
2023/10/31 09:10:03;;;;;;;0.00;0.00;;;;;;;11.57;100.00;97803.38;5135805;27;20269;-58
2023/10/31 09:12:50;;;;;;;0.07;0.07;;;;;;;11.55;100.00;97807.97;5135931;27;20558;-57
2023/10/31 09:15:37;;;;;;;0.00;0.00;;;;;;;11.70;100.00;97811.91;5135833;27;20193;-57
2023/10/31 09:18:24;;;;;;;0.00;0.00;;;;;;;11.80;100.00;97813.78;5135781;27;20724;-57
2023/10/31 09:21:12;;;;;;;0.00;0.00;;;;;;;13.29;100.00;97817.50;5135434;27;20225;-58
2023/10/31 09:23:59;;;;;;;0.00;0.00;;;;;;;13.92;100.00;97813.00;5135298;27;20212;-58
2023/10/31 09:26:46;;;;;;;0.00;0.00;;;;;;;13.70;100.00;97800.13;5135413;27;20569;-57
2023/10/31 09:29:33;;;;;;;0.00;0.00;;;;;;;13.02;100.00;97797.84;5134226;27;20189;-58
2023/10/31 09:32:20;;;;;;;0.00;0.00;;;;;;;13.07;100.00;97803.56;5119828;27;20208;-57
2023/10/31 09:35:08;;;;;;;0.00;0.00;;;;;;;13.31;100.00;97808.38;5135356;27;20217;-57
2023/10/31 09:37:57;;;;;;;0.10;0.10;;;;;;;12.80;100.00;97809.69;5135447;27;20205;-57
2023/10/31 09:40:44;;;;;;;0.00;0.00;;;;;;;12.52;100.00;97814.09;5134483;27;20193;-57
2023/10/31 09:43:31;;;;;;;0.00;0.00;;;;;;;12.25;100.00;97820.16;5133657;27;20684;-57
2023/10/31 09:46:18;;;;;;;0.00;0.00;;;;;;;12.20;100.00;97825.06;5135195;27;20202;-57
2023/10/31 09:49:05;;;;;;;0.00;0.00;;;;;;;12.42;100.00;97823.91;5135302;27;20258;-57
2023/10/31 09:51:53;;;;;;;0.00;0.00;;;;;;;12.64;100.00;97830.72;5134885;27;20540;-57
2023/10/31 09:54:42;;;;;;;0.00;0.00;;;;;;;12.95;100.00;97831.34;5135053;27;20197;-58
2023/10/31 09:57:32;;;;;;;0.00;0.00;;;;;;;13.28;100.00;97823.78;5134886;27;20197;-57
2023/10/31 10:00:19;;;;;;;0.07;0.07;;;;;;;13.17;100.00;97825.63;5133900;27;20193;-57
2023/10/31 10:03:09;;;;;;;0.00;0.00;;;;;;;12.89;100.00;97832.75;5134558;27;20229;-58
2023/10/31 10:05:56;;;;;;;0.00;0.00;;;;;;;12.76;100.00;97837.56;5134669;27;20260;-57
2023/10/31 10:08:43;;;;;;;0.00;0.00;;;;;;;13.14;100.00;97831.25;5134804;27;20228;-57
2023/10/31 10:11:32;;;;;;;0.00;0.00;;;;;;;13.52;100.00;97834.72;5134616;27;20193;-57
2023/10/31 10:14:20;;;;;;;0.00;0.00;;;;;;;13.52;100.00;97841.88;5133311;27;20219;-57
2023/10/31 10:17:15;;;;;;;0.10;0.10;;;;;;;13.09;100.00;97835.31;5134461;27;20189;-57
2023/10/31 10:20:07;;;;;;;0.00;0.00;;;;;;;12.90;100.00;97842.38;5134329;27;20357;-57
2023/10/31 10:22:56;;;;;;;0.00;0.00;;;;;;;12.80;100.00;97830.13;5133848;27;20704;-57
2023/10/31 10:25:43;;;;;;;0.10;0.10;;;;;;;12.76;100.00;97842.03;5134474;27;20219;-57
2023/10/31 10:28:33;;;;;;;0.00;0.00;;;;;;;12.73;100.00;97836.97;5133046;27;20280;-57
2023/10/31 10:31:20;;;;;;;0.00;0.00;;;;;;;12.81;100.00;97832.63;5118386;27;20197;-57
2023/10/31 10:34:08;;;;;;;0.00;0.00;;;;;;;13.14;100.00;97836.56;5134289;27;20217;-57
2023/10/31 10:36:58;;;;;;;0.00;0.00;;;;;;;13.84;100.00;97830.72;5134165;27;20356;-57
2023/10/31 10:39:49;;;;;;;0.00;0.00;;;;;;;15.39;100.00;97821.97;5134109;27;20201;-57
2023/10/31 10:42:45;;;;;;;0.00;0.00;;;;;;;14.79;100.00;97820.19;5133899;27;20271;-57
2023/10/31 10:45:33;;;;;;;0.10;0.10;;;;;;;13.86;100.00;97815.44;5133973;27;20259;-57
2023/10/31 10:48:21;;;;;;;0.10;0.10;;;;;;;13.55;100.00;97821.13;5134066;27;20289;-57
2023/10/31 10:51:18;;;;;;;0.10;0.10;;;;;;;13.39;100.00;97829.75;5133893;27;20198;-57
2023/10/31 10:54:10;;;;;;;0.00;0.00;;;;;;;13.08;100.00;97826.50;5133888;27;20672;-57
2023/10/31 10:57:05;;;;;;;0.00;0.00;;;;;;;13.02;100.00;97829.75;5133822;27;20260;-57
2023/10/31 10:59:56;;;;;;;0.10;0.10;;;;;;;12.82;100.00;97828.97;5132610;27;20193;-57
2023/10/31 11:02:45;;;;;;;0.00;0.00;;;;;;;12.83;100.00;97830.66;5133633;27;20227;-57
2023/10/31 11:05:33;;;;;;;0.00;0.00;;;;;;;12.97;100.00;97828.53;5133808;27;20288;-57
2023/10/31 11:08:21;;;;;;;0.10;0.10;;;;;;;13.20;100.00;97836.97;5133716;27;20684;-57
2023/10/31 11:11:09;;;;;;;0.10;0.10;;;;;;;13.42;100.00;97832.13;5133542;27;20201;-57
2023/10/31 11:13:56;;;;;;;0.00;0.00;;;;;;;14.75;100.00;97833.97;5132571;27;20198;-57
2023/10/31 11:16:48;;;;;;;0.10;0.10;;;;;;;15.46;100.00;97837.19;5133698;27;20255;-57
2023/10/31 11:19:38;;;;;;;0.03;0.03;;;;;;;15.28;100.00;97827.59;5133510;27;20308;-57
2023/10/31 11:22:25;;;;;;;0.00;0.00;;;;;;;15.18;100.00;97836.56;5133361;27;20229;-57
2023/10/31 11:25:15;;;;;;;0.00;0.00;;;;;;;15.29;100.00;97829.28;5133649;27;20193;-57
2023/10/31 11:28:17;;;;;;;0.00;0.00;;;;;;;15.54;100.00;97839.06;5116869;28;20495;-57
2023/10/31 11:31:04;;;;;;;0.00;0.00;;;;;;;15.81;100.00;97829.13;5133605;27;20194;-57
2023/10/31 11:33:52;;;;;;;0.00;0.00;;;;;;;15.76;100.00;97831.47;5133578;27;20189;-57
2023/10/31 11:36:41;;;;;;;0.00;0.00;;;;;;;15.89;100.00;97838.00;5133468;27;20197;-57
2023/10/31 11:39:28;;;;;;;0.00;0.00;;;;;;;15.91;100.00;97830.66;5133088;27;20772;-57
2023/10/31 11:42:19;;;;;;;0.00;0.00;;;;;;;15.88;100.00;97833.66;5133183;27;20217;-57
2023/10/31 11:45:08;;;;;;;0.00;0.00;;;;;;;16.19;100.00;97844.53;5132257;27;20668;-58
2023/10/31 11:47:56;;;;;;;0.00;0.00;;;;;;;16.52;100.00;97837.38;5133432;27;20198;-57
2023/10/31 11:50:43;;;;;;;0.10;0.10;;;;;;;16.49;100.00;97835.00;5133153;27;20243;-57
2023/10/31 11:53:31;;;;;;;0.10;0.10;;;;;;;17.37;100.00;97824.31;5133423;28;20190;-57
2023/10/31 11:56:19;;;;;;;0.10;0.10;;;;;;;15.86;100.00;97837.50;5117705;27;20316;-57
2023/10/31 11:59:07;;;;;;;0.00;0.00;;;;;;;15.39;100.00;97835.31;5131980;28;20316;-57
2023/10/31 12:01:54;;;;;;;0.00;0.00;;;;;;;14.92;100.00;97833.09;5133093;27;20668;-57
2023/10/31 12:04:41;;;;;;;0.00;0.00;;;;;;;15.28;100.00;97841.78;5119163;27;20255;-57
2023/10/31 12:07:28;;;;;;;0.10;0.10;;;;;;;16.90;100.00;97840.34;5136752;27;20706;-57
2023/10/31 12:10:23;;;;;;;0.10;0.10;;;;;;;18.40;100.00;97836.59;5136965;27;20293;-57
2023/10/31 12:13:14;;;;;;;0.00;0.00;;;;;;;20.02;100.00;97834.78;5135702;27;20185;-58
2023/10/31 12:16:01;;;;;;;0.00;0.00;;;;;;;21.22;82.06;97835.78;5136963;27;20186;-58
2023/10/31 12:18:55;;;;;;;0.00;0.00;;;;;;;21.18;81.08;97829.16;5136961;27;20287;-57
2023/10/31 12:21:46;;;;;;;0.00;0.00;;;;;;;19.63;91.22;97837.84;5136945;27;20244;-58
2023/10/31 12:24:34;;;;;;;0.00;0.00;;;;;;;20.62;86.98;97848.00;5136735;27;20205;-58
2023/10/31 12:27:22;;;;;;;0.00;0.00;;;;;;;21.74;78.13;97850.59;5136737;27;20198;-58
2023/10/31 12:30:10;;;;;;;0.00;0.00;;;;;;;21.18;77.44;97853.38;5135316;27;20268;-58
2023/10/31 12:32:58;;;;;;;0.10;0.10;;;;;;;19.48;84.69;97863.03;5136538;27;20205;-58
2023/10/31 12:35:45;;;;;;;0.00;0.00;;;;;;;18.07;97.91;97866.31;5136581;27;20197;-58
2023/10/31 12:38:32;;;;;;;0.00;0.00;;;;;;;17.80;100.00;97864.13;5136293;27;20213;-58
2023/10/31 12:41:20;;;;;;;0.03;0.03;;;;;;;17.90;100.00;97868.25;5136473;27;20256;-58
2023/10/31 12:44:10;;;;;;;0.00;0.00;;;;;;;16.54;100.00;97875.44;5134891;27;20212;-57
2023/10/31 12:46:57;;;;;;;0.10;0.10;;;;;;;15.97;100.00;97875.41;5136141;27;20189;-58
2023/10/31 12:49:44;;;;;;;0.00;0.00;;;;;;;15.48;100.00;97879.72;5136355;27;20215;-58
2023/10/31 12:52:46;;;;;;;0.00;0.00;;;;;;;15.03;100.00;97872.81;5136021;27;20185;-58
2023/10/31 12:55:39;;;;;;;0.00;0.00;;;;;;;14.44;100.00;97878.88;5136129;27;20193;-57
2023/10/31 12:58:27;;;;;;;0.10;0.10;;;;;;;14.42;100.00;97887.00;5134720;27;20676;-57